Time;durP1;ratioP1;P1;durP2;ratioP2;P2;SDS_P1;SDS_P2;PMS_P1;PMS_P2;Temp;Humidity;BMP_temperature;BMP_pressure;BME280_temperature;BME280_humidity;BME280_pressure;Samples;Min_cycle;Max_cycle;Signal;HPM_P1;HPM_P2
2022/05/14 00:02:00;;;;;;;17.35;7.80;;;20.00;99.90;;;;;;4898774;29;20047;-78
2022/05/14 00:04:46;;;;;;;14.05;8.02;;;19.40;99.90;;;;;;4907584;29;20044;-81
2022/05/14 00:07:31;;;;;;;19.38;9.18;;;19.20;99.90;;;;;;4910001;29;20068;-79
2022/05/14 00:10:21;;;;;;;20.58;10.23;;;18.90;99.90;;;;;;4917723;29;20516;-84
2022/05/14 00:13:06;;;;;;;21.15;10.50;;;18.90;99.90;;;;;;4919181;29;20059;-82
2022/05/14 00:15:58;;;;;;;24.50;10.73;;;18.90;99.90;;;;;;4919549;29;20051;-83
2022/05/14 00:18:44;;;;;;;24.80;11.98;;;19.40;99.90;;;;;;4919658;29;20059;-82
2022/05/14 00:21:35;;;;;;;28.38;11.70;;;19.60;99.90;;;;;;4918221;29;20050;-79
2022/05/14 00:24:23;;;;;;;24.42;11.15;;;19.50;99.90;;;;;;4906000;29;20063;-80
2022/05/14 00:27:09;;;;;;;23.58;9.65;;;19.60;99.90;;;;;;4938445;29;20051;-82
2022/05/14 00:29:56;;;;;;;19.98;9.52;;;19.30;99.90;;;;;;4937654;29;20175;-82
2022/05/14 00:32:42;;;;;;;24.30;9.65;;;19.50;99.90;;;;;;4936227;29;20120;-80
2022/05/14 00:35:28;;;;;;;20.33;9.05;;;19.40;99.90;;;;;;4937859;29;20152;-79
2022/05/14 00:38:14;;;;;;;22.73;9.93;;;19.60;99.90;;;;;;4938153;29;20050;-80
2022/05/14 00:41:08;;;;;;;21.10;9.30;;;19.70;99.90;;;;;;4938530;29;20059;-81
2022/05/14 00:43:57;;;;;;;20.48;9.38;;;19.70;99.90;;;;;;4938237;29;20130;-83
2022/05/14 00:46:51;;;;;;;38.28;10.60;;;19.40;99.90;;;;;;4937897;29;20518;-81
2022/05/14 00:49:37;;;;;;;20.27;8.70;;;19.50;99.90;;;;;;4937591;29;20118;-77
2022/05/14 00:52:24;;;;;;;21.08;9.50;;;19.50;99.90;;;;;;4937624;29;20054;-82
2022/05/14 00:55:10;;;;;;;19.33;8.57;;;19.50;99.90;;;;;;4938292;29;20125;-82
2022/05/14 00:57:57;;;;;;;16.92;8.50;;;19.20;99.90;;;;;;4937890;29;20047;-82
2022/05/14 01:00:43;;;;;;;27.65;8.95;;;18.60;99.90;;;;;;4937445;29;20058;-83
2022/05/14 01:03:29;;;;;;;17.88;9.30;;;18.80;99.90;;;;;;4937126;29;20501;-81
2022/05/14 01:06:19;;;;;;;19.38;9.07;;;18.60;99.90;;;;;;4936631;29;20058;-83
2022/05/14 01:09:06;;;;;;;27.85;9.02;;;18.60;99.90;;;;;;4935653;29;20391;-79
2022/05/14 01:11:54;;;;;;;19.27;8.57;;;19.00;99.90;;;;;;4937674;29;20400;-83
2022/05/14 01:14:40;;;;;;;20.48;8.70;;;19.20;99.90;;;;;;4937213;29;20058;-76
2022/05/14 01:17:26;;;;;;;17.50;8.70;;;19.30;99.90;;;;;;4936984;29;20146;-81
2022/05/14 01:20:14;;;;;;;16.92;8.05;;;19.40;99.90;;;;;;4937378;29;20542;-80
2022/05/14 01:23:09;;;;;;;20.73;8.80;;;18.90;99.90;;;;;;4937200;29;20050;-83
2022/05/14 01:26:28;;;;;;;21.20;8.63;;;18.60;99.90;;;;;;4911437;29;20047;-83
2022/05/14 01:29:20;;;;;;;16.98;8.60;;;18.60;99.90;;;;;;4916836;29;20047;-75
2022/05/14 01:32:06;;;;;;;19.70;8.65;;;19.10;99.90;;;;;;4918189;29;20059;-83
2022/05/14 01:34:52;;;;;;;17.00;9.63;;;19.20;99.90;;;;;;4918238;29;20051;-84
2022/05/14 01:37:38;;;;;;;23.55;10.35;;;19.20;99.90;;;;;;4904076;29;20059;-83
2022/05/14 01:40:24;;;;;;;18.98;9.45;;;19.30;99.90;;;;;;4917298;29;20075;-79
2022/05/14 01:43:10;;;;;;;20.55;7.38;;;19.20;99.90;;;;;;4917903;29;20047;-81
2022/05/14 01:45:56;;;;;;;16.55;8.05;;;19.20;99.90;;;;;;4917605;29;20059;-83
2022/05/14 01:48:42;;;;;;;17.80;8.55;;;19.30;99.90;;;;;;4917699;29;20110;-80
2022/05/14 01:51:29;;;;;;;19.98;8.52;;;19.30;99.90;;;;;;4916454;29;20507;-81
2022/05/14 01:54:15;;;;;;;18.25;7.53;;;19.40;99.90;;;;;;4917951;29;20062;-82
2022/05/14 01:57:01;;;;;;;16.55;8.02;;;18.80;99.90;;;;;;4916241;29;20445;-83
2022/05/14 01:59:47;;;;;;;13.15;7.93;;;18.60;99.90;;;;;;4917125;29;20055;-83
2022/05/14 02:02:33;;;;;;;15.52;7.30;;;18.90;99.90;;;;;;4917336;29;20048;-78
2022/05/14 02:05:20;;;;;;;13.40;7.45;;;18.80;99.90;;;;;;4916779;29;20107;-79
2022/05/14 02:08:15;;;;;;;13.30;7.10;;;18.50;99.90;;;;;;4916537;29;20039;-83
2022/05/14 02:11:01;;;;;;;12.82;7.53;;;18.50;99.90;;;;;;4916947;29;20191;-83
2022/05/14 02:13:49;;;;;;;11.98;7.03;;;18.90;99.90;;;;;;4916726;29;20046;-85
2022/05/14 02:16:35;;;;;;;16.10;7.68;;;18.80;99.90;;;;;;4917551;29;20055;-85
2022/05/14 02:19:20;;;;;;;21.52;9.80;;;18.80;99.90;;;;;;4917216;29;20046;-82
2022/05/14 02:22:07;;;;;;;18.65;9.77;;;18.70;99.90;;;;;;4915577;29;20503;-83
2022/05/14 02:24:54;;;;;;;22.45;11.13;;;18.80;99.90;;;;;;4918860;29;20062;-84
2022/05/14 02:27:40;;;;;;;19.80;11.60;;;18.70;99.90;;;;;;4936302;29;20125;-84
2022/05/14 02:30:26;;;;;;;25.67;11.85;;;18.60;99.90;;;;;;4935265;29;20062;-86
2022/05/14 02:33:12;;;;;;;23.85;12.35;;;18.50;99.90;;;;;;4936028;29;20531;-85
2022/05/14 02:35:58;;;;;;;28.40;11.70;;;18.60;99.90;;;;;;4936352;29;20059;-86
2022/05/14 02:38:45;;;;;;;14.80;8.68;;;18.80;99.90;;;;;;4936237;29;20050;-87
2022/05/14 02:41:30;;;;;;;19.67;9.38;;;18.60;99.90;;;;;;4936962;29;20050;-83
2022/05/14 02:44:16;;;;;;;17.67;10.65;;;18.70;99.90;;;;;;4921761;29;20195;-87
2022/05/14 02:47:02;;;;;;;19.48;9.73;;;18.60;99.90;;;;;;4921476;29;20049;-79
2022/05/14 02:49:48;;;;;;;18.27;11.00;;;18.60;99.90;;;;;;4935668;29;20159;-75
2022/05/14 02:52:35;;;;;;;20.90;10.43;;;18.50;99.90;;;;;;4936351;29;20127;-88
2022/05/14 02:55:20;;;;;;;18.98;10.07;;;18.50;99.90;;;;;;4936540;29;20142;-84
2022/05/14 02:58:06;;;;;;;17.58;8.88;;;18.70;99.90;;;;;;4935535;29;20054;-78
2022/05/14 03:00:52;;;;;;;16.15;9.35;;;18.50;99.90;;;;;;4921147;29;20095;-84
2022/05/14 03:03:38;;;;;;;19.63;9.18;;;18.60;99.90;;;;;;4921222;29;20054;-79
2022/05/14 03:06:25;;;;;;;13.10;8.85;;;18.40;99.90;;;;;;4935376;29;20547;-82
2022/05/14 03:09:11;;;;;;;14.98;9.05;;;18.40;99.90;;;;;;4935536;29;20402;-82
2022/05/14 03:11:57;;;;;;;13.25;8.35;;;18.20;99.90;;;;;;4935564;29;20043;-85
2022/05/14 03:14:43;;;;;;;14.05;9.25;;;18.30;99.90;;;;;;4935739;29;20055;-85
2022/05/14 03:17:35;;;;;;;13.73;8.05;;;18.10;99.90;;;;;;4935878;29;20138;-90
2022/05/14 03:20:21;;;;;;;11.75;8.10;;;18.00;99.90;;;;;;4936022;29;20423;-83
2022/05/14 03:23:07;;;;;;;11.18;8.25;;;17.80;99.90;;;;;;4933833;29;20114;-86
2022/05/14 03:25:53;;;;;;;16.98;8.02;;;17.70;99.90;;;;;;4920572;29;20526;-82
2022/05/14 03:28:39;;;;;;;20.58;8.82;;;18.00;99.90;;;;;;4897118;29;20576;-81
2022/05/14 03:31:25;;;;;;;13.68;7.65;;;18.00;99.90;;;;;;4897904;29;20157;-76
2022/05/14 03:34:11;;;;;;;19.95;8.13;;;17.90;99.90;;;;;;4901032;29;20147;-83
2022/05/14 03:36:57;;;;;;;16.40;7.72;;;17.80;99.90;;;;;;4913497;29;20511;-81
2022/05/14 03:39:43;;;;;;;12.35;7.22;;;17.70;99.90;;;;;;4900901;29;20043;-82
2022/05/14 03:42:30;;;;;;;12.18;7.88;;;17.70;99.90;;;;;;4901472;29;20048;-84
2022/05/14 03:45:16;;;;;;;13.07;7.45;;;17.80;99.90;;;;;;4900875;29;20052;-77
2022/05/14 03:48:03;;;;;;;11.63;7.55;;;17.40;99.90;;;;;;4900931;29;20051;-80
2022/05/14 03:50:49;;;;;;;12.50;7.68;;;17.60;99.90;;;;;;4900722;29;20051;-83
2022/05/14 03:53:37;;;;;;;10.40;7.00;;;17.50;99.90;;;;;;4929435;29;20100;-80
2022/05/14 03:56:23;;;;;;;14.13;8.00;;;17.60;99.90;;;;;;4909179;29;20412;-77
2022/05/14 03:59:09;;;;;;;14.20;8.40;;;17.60;99.90;;;;;;4919965;29;20048;-76
2022/05/14 04:01:55;;;;;;;15.32;9.10;;;17.80;99.90;;;;;;4919483;29;20147;-84
2022/05/14 04:04:41;;;;;;;18.60;9.30;;;17.90;99.90;;;;;;4919157;29;20552;-81
2022/05/14 04:07:27;;;;;;;12.43;9.05;;;17.80;99.90;;;;;;4918989;29;20515;-80
2022/05/14 04:10:16;;;;;;;11.85;8.35;;;17.70;99.90;;;;;;4919240;29;20051;-77
2022/05/14 04:13:02;;;;;;;14.25;8.68;;;17.90;99.90;;;;;;4918133;29;20420;-79
2022/05/14 04:15:49;;;;;;;13.40;8.70;;;18.00;99.90;;;;;;4918775;29;20051;-80
2022/05/14 04:18:35;;;;;;;17.73;8.77;;;17.90;99.90;;;;;;4919164;29;20047;-84
2022/05/14 04:21:21;;;;;;;12.05;8.35;;;18.10;99.90;;;;;;4919590;29;20179;-84
2022/05/14 04:24:08;;;;;;;15.52;8.80;;;18.30;99.90;;;;;;4919382;29;20066;-77
2022/05/14 04:26:54;;;;;;;16.67;9.20;;;18.50;99.90;;;;;;4933763;29;20047;-81
2022/05/14 04:29:39;;;;;;;18.05;9.50;;;18.70;99.90;;;;;;4938454;29;20078;-85
2022/05/14 04:32:25;;;;;;;19.50;10.63;;;18.70;99.90;;;;;;4938097;29;20119;-84
2022/05/14 04:35:14;;;;;;;17.48;9.52;;;18.70;99.90;;;;;;4938777;29;20061;-78
2022/05/14 04:38:00;;;;;;;17.35;10.95;;;18.90;99.90;;;;;;4938028;29;20503;-83
2022/05/14 04:40:46;;;;;;;18.23;11.18;;;18.70;99.90;;;;;;4938043;29;20039;-78
2022/05/14 04:43:33;;;;;;;17.15;9.98;;;18.90;99.90;;;;;;4935677;29;20054;-82
2022/05/14 04:46:19;;;;;;;19.67;11.57;;;18.80;99.90;;;;;;4937636;29;20054;-74
2022/05/14 04:49:05;;;;;;;22.42;11.15;;;19.00;99.90;;;;;;4937289;29;20059;-86
2022/05/14 04:51:51;;;;;;;16.17;9.82;;;19.20;99.90;;;;;;4937572;29;20062;-84
2022/05/14 04:54:37;;;;;;;23.98;12.90;;;19.20;99.90;;;;;;4937201;29;20054;-83
2022/05/14 04:57:23;;;;;;;22.13;11.93;;;19.00;99.90;;;;;;4937414;29;20050;-83
2022/05/14 05:00:10;;;;;;;20.85;12.10;;;18.90;99.90;;;;;;4937272;29;20055;-77
2022/05/14 05:06:00;;;;;;;17.63;10.73;;;19.40;99.90;;;;;;4937617;29;20042;-80
2022/05/14 05:08:46;;;;;;;27.15;11.32;;;19.50;99.90;;;;;;4936882;29;20436;-79
2022/05/14 05:11:32;;;;;;;32.58;12.93;;;19.50;99.90;;;;;;4937628;29;20411;-83
2022/05/14 05:14:18;;;;;;;22.75;12.07;;;19.40;99.90;;;;;;4938284;29;20051;-88
2022/05/14 05:17:04;;;;;;;24.08;13.93;;;19.50;99.90;;;;;;4940537;29;20122;-88
2022/05/14 05:19:50;;;;;;;31.05;16.65;;;19.80;99.90;;;;;;4938725;29;20054;-84
2022/05/14 05:22:37;;;;;;;35.53;16.13;;;19.90;99.90;;;;;;4935945;29;20059;-84
2022/05/14 05:25:23;;;;;;;31.27;16.20;;;19.60;99.90;;;;;;4937398;29;20150;-84
2022/05/14 05:28:09;;;;;;;31.48;17.23;;;19.70;99.90;;;;;;4918241;29;20046;-84
2022/05/14 05:30:55;;;;;;;36.60;16.92;;;19.70;99.90;;;;;;4918080;29;20396;-79
2022/05/14 05:33:41;;;;;;;33.85;18.27;;;19.80;99.90;;;;;;4917023;29;20172;-80
2022/05/14 05:36:27;;;;;;;35.83;18.13;;;20.00;99.90;;;;;;4917972;29;20074;-81
2022/05/14 05:39:13;;;;;;;39.20;18.02;;;20.00;99.90;;;;;;4917304;29;20059;-79
2022/05/14 05:41:59;;;;;;;28.17;17.45;;;20.00;99.90;;;;;;4917827;29;20579;-83
2022/05/14 05:44:45;;;;;;;33.42;17.15;;;19.90;99.90;;;;;;4916173;29;20087;-82
2022/05/14 05:47:31;;;;;;;24.83;14.15;;;20.10;99.90;;;;;;4917555;29;20506;-81
2022/05/14 05:50:17;;;;;;;22.73;13.75;;;20.20;99.90;;;;;;4917702;29;20408;-82
2022/05/14 05:53:03;;;;;;;22.27;11.93;;;20.30;99.90;;;;;;4917133;29;20195;-82
2022/05/14 05:58:53;;;;;;;27.27;16.23;;;20.40;99.90;;;;;;4917041;29;20081;-81
2022/05/14 06:01:38;;;;;;;50.65;31.65;;;20.40;99.90;;;;;;4916848;29;20146;-81
2022/05/14 06:04:25;;;;;;;43.90;29.55;;;20.50;99.90;;;;;;4916508;29;20139;-79
2022/05/14 06:07:11;;;;;;;23.40;14.55;;;20.60;99.90;;;;;;4916768;29;20180;-81
2022/05/14 06:09:57;;;;;;;63.38;40.50;;;20.50;99.90;;;;;;4908848;29;20044;-77
2022/05/14 06:12:43;;;;;;;73.90;48.38;;;20.60;99.90;;;;;;4899767;29;20075;-75
2022/05/14 06:15:29;;;;;;;18.42;12.30;;;20.70;99.90;;;;;;4916504;29;20612;-77
2022/05/14 06:18:15;;;;;;;17.02;9.55;;;20.60;99.90;;;;;;4913099;29;20053;-78
2022/05/14 06:21:01;;;;;;;13.82;8.57;;;20.40;99.90;;;;;;4909836;29;20127;-78
2022/05/14 06:23:47;;;;;;;19.13;9.95;;;20.50;99.90;;;;;;4905730;29;20048;-77
2022/05/14 06:26:33;;;;;;;15.02;9.77;;;20.60;99.90;;;;;;4911990;29;20063;-78
2022/05/14 06:29:19;;;;;;;22.85;9.77;;;20.70;99.90;;;;;;4906825;29;20047;-77
2022/05/14 06:32:05;;;;;;;16.63;9.40;;;20.70;99.90;;;;;;4905287;29;20063;-79
2022/05/14 06:34:51;;;;;;;16.42;10.00;;;20.70;99.90;;;;;;4909736;29;20051;-79
2022/05/14 06:37:37;;;;;;;15.57;9.02;;;20.80;99.90;;;;;;4908310;29;20059;-77
2022/05/14 06:40:23;;;;;;;20.02;9.00;;;20.90;99.90;;;;;;4915973;29;20463;-77
2022/05/14 06:43:09;;;;;;;178.88;92.95;;;21.00;99.90;;;;;;4916077;29;20115;-80
2022/05/14 06:45:55;;;;;;;43.70;19.80;;;21.30;99.90;;;;;;4916157;29;20506;-79
2022/05/14 06:48:41;;;;;;;83.28;59.15;;;21.50;99.90;;;;;;4915469;29;20131;-78
2022/05/14 06:51:29;;;;;;;65.53;40.15;;;21.60;99.90;;;;;;4914925;29;20050;-79
2022/05/14 06:54:15;;;;;;;25.42;17.60;;;21.90;99.90;;;;;;4915829;29;20059;-80
2022/05/14 06:57:02;;;;;;;22.70;12.07;;;21.90;99.90;;;;;;4916197;29;20075;-78
2022/05/14 06:59:48;;;;;;;26.42;13.50;;;21.80;99.90;;;;;;4915733;29;20518;-76
2022/05/14 07:02:35;;;;;;;18.30;12.52;;;21.80;99.90;;;;;;4915847;29;20047;-80
2022/05/14 07:08:25;;;;;;;17.63;10.93;;;22.10;99.90;;;;;;4915331;29;20080;-79
2022/05/14 07:11:12;;;;;;;17.20;9.52;;;22.10;99.90;;;;;;4914889;29;20063;-83
2022/05/14 07:13:58;;;;;;;18.23;9.15;;;22.10;99.90;;;;;;4901613;29;20180;-83
2022/05/14 07:16:46;;;;;;;18.58;10.27;;;22.10;99.90;;;;;;4916003;29;20108;-79
2022/05/14 07:19:32;;;;;;;20.02;10.15;;;22.20;99.90;;;;;;4916609;29;20047;-79
2022/05/14 07:22:18;;;;;;;19.50;9.93;;;22.20;99.90;;;;;;4915792;29;20051;-79
2022/05/14 07:25:04;;;;;;;30.33;18.50;;;22.30;99.90;;;;;;4920744;29;20098;-76
2022/05/14 07:27:50;;;;;;;38.28;26.58;;;22.50;99.90;;;;;;4934745;29;20062;-78
2022/05/14 07:30:36;;;;;;;23.10;12.45;;;22.50;99.90;;;;;;4934067;29;20091;-83
2022/05/14 07:33:21;;;;;;;20.05;12.23;;;22.60;99.90;;;;;;4934301;29;20511;-80
2022/05/14 07:36:14;;;;;;;13.73;9.50;;;22.70;99.90;;;;;;4933403;29;20124;-76
2022/05/14 07:39:04;;;;;;;18.60;8.63;;;22.70;99.90;;;;;;4934331;29;20172;-75
2022/05/14 07:41:54;;;;;;;15.70;9.32;;;22.90;99.90;;;;;;4934207;29;20046;-76
2022/05/14 07:44:44;;;;;;;12.63;7.28;;;23.00;99.90;;;;;;4934610;29;20514;-76
2022/05/14 07:47:31;;;;;;;11.13;6.15;;;23.10;99.90;;;;;;4933890;29;20071;-76
2022/05/14 07:50:17;;;;;;;9.45;5.53;;;23.40;99.90;;;;;;4933964;29;20141;-78
2022/05/14 07:53:03;;;;;;;12.85;5.72;;;23.40;99.50;;;;;;4934425;29;20047;-78
2022/05/14 07:55:50;;;;;;;32.10;21.77;;;23.60;99.50;;;;;;4934159;29;20431;-79
2022/05/14 07:58:40;;;;;;;25.15;12.70;;;23.70;99.40;;;;;;4924170;29;20141;-76
2022/05/14 08:01:26;;;;;;;;;;;23.80;98.60;;;;;;4896693;29;20051;-78
2022/05/14 08:04:12;;;;;;;13.25;5.40;;;23.90;98.20;;;;;;4896525;29;19942;-76
2022/05/14 08:06:58;;;;;;;11.18;5.55;;;23.70;97.60;;;;;;4895448;29;20047;-85
2022/05/14 08:09:44;;;;;;;13.38;6.40;;;23.60;97.80;;;;;;4895335;29;20055;-77
2022/05/14 08:12:40;;;;;;;9.65;6.80;;;23.60;98.00;;;;;;4896721;29;20180;-77
2022/05/14 08:15:27;;;;;;;9.98;5.97;;;23.70;97.90;;;;;;4896436;29;20088;-75
2022/05/14 08:18:14;;;;;;;13.82;6.75;;;24.00;97.30;;;;;;4898569;29;20449;-87
2022/05/14 08:24:29;;;;;;;11.93;5.47;;;24.10;97.10;;;;;;4891919;29;20127;-80
2022/05/14 08:27:11;;;;;;;13.73;8.27;;;24.30;96.70;;;;;;4918395;29;20143;-78
2022/05/14 08:29:59;;;;;;;10.88;6.65;;;24.30;96.20;;;;;;4917926;29;20148;-75
2022/05/14 08:32:44;;;;;;;8.95;5.63;;;24.30;96.20;;;;;;4918031;29;20051;-76
2022/05/14 08:35:30;;;;;;;9.88;6.57;;;24.50;96.00;;;;;;4918518;29;20063;-81
2022/05/14 08:38:17;;;;;;;7.55;4.97;;;24.70;95.80;;;;;;4918294;29;20163;-79
2022/05/14 08:41:04;;;;;;;6.07;4.07;;;24.70;94.50;;;;;;4917288;29;20055;-78
2022/05/14 08:43:59;;;;;;;8.13;4.38;;;24.60;94.60;;;;;;4918285;29;20131;-79
2022/05/14 08:46:46;;;;;;;8.68;4.65;;;24.70;94.90;;;;;;4918027;29;20082;-80
2022/05/14 08:49:43;;;;;;;7.03;4.65;;;24.70;93.70;;;;;;4917922;29;20064;-80
2022/05/14 08:52:29;;;;;;;8.30;4.53;;;24.70;93.70;;;;;;4918334;29;20246;-79
2022/05/14 08:55:18;;;;;;;7.63;4.00;;;24.90;93.40;;;;;;4918142;29;20506;-80
2022/05/14 08:58:30;;;;;;;9.13;4.50;;;25.00;92.50;;;;;;4916642;29;20079;-79
2022/05/14 09:01:21;;;;;;;9.05;4.97;;;25.00;92.80;;;;;;4918027;29;20071;-79
2022/05/14 09:04:09;;;;;;;10.43;4.53;;;25.00;92.30;;;;;;4916238;29;20634;-80
2022/05/14 09:06:55;;;;;;;8.48;4.93;;;25.00;91.70;;;;;;4916034;29;20503;-80
2022/05/14 09:09:56;;;;;;;8.50;5.30;;;25.00;92.10;;;;;;4916408;29;20067;-78
2022/05/14 09:12:55;;;;;;;9.98;5.20;;;25.20;91.80;;;;;;4916052;29;20107;-79
2022/05/14 09:15:51;;;;;;;39.40;28.67;;;25.60;91.80;;;;;;4916402;29;20078;-79
2022/05/14 09:18:48;;;;;;;11.75;6.05;;;25.60;90.80;;;;;;4917479;29;20047;-77
2022/05/14 09:21:36;;;;;;;10.32;5.57;;;25.60;92.00;;;;;;4917726;29;20412;-82
2022/05/14 09:24:27;;;;;;;36.10;23.73;;;25.50;91.70;;;;;;4917469;29;20115;-81
2022/05/14 09:27:25;;;;;;;7.78;5.20;;;25.60;91.90;;;;;;4921163;29;20510;-77
2022/05/14 09:30:21;;;;;;;14.80;4.75;;;25.60;91.00;;;;;;4935839;29;20054;-81
2022/05/14 09:33:21;;;;;;;7.75;5.13;;;25.70;91.00;;;;;;4936566;29;20059;-78
2022/05/14 09:36:15;;;;;;;9.27;4.57;;;25.60;91.40;;;;;;4936206;29;20042;-79
2022/05/14 09:39:06;;;;;;;8.43;5.20;;;25.80;91.40;;;;;;4936391;29;20138;-78
2022/05/14 09:41:56;;;;;;;6.97;5.00;;;26.00;90.40;;;;;;4935629;29;20062;-80
2022/05/14 09:44:48;;;;;;;9.40;4.80;;;26.10;90.90;;;;;;4936403;29;20066;-79
2022/05/14 09:47:34;;;;;;;10.35;5.05;;;26.20;90.20;;;;;;4921871;29;20179;-77
2022/05/14 09:50:30;;;;;;;11.88;4.63;;;26.10;90.10;;;;;;4936337;29;20070;-79
2022/05/14 09:53:30;;;;;;;23.63;16.77;;;25.90;90.40;;;;;;4936539;29;20043;-77
2022/05/14 09:56:58;;;;;;;12.30;8.43;;;25.70;90.40;;;;;;4936343;29;20559;-76
2022/05/14 09:59:52;;;;;;;23.17;17.17;;;26.20;90.40;;;;;;4936121;29;20190;-77
2022/05/14 10:03:06;;;;;;;84.10;53.33;;;26.00;90.00;;;;;;4936246;29;20051;-79
2022/05/14 10:06:15;;;;;;;19.70;10.15;;;26.20;89.60;;;;;;4935141;29;20107;-80
2022/05/14 10:09:14;;;;;;;53.10;40.15;;;26.40;90.40;;;;;;4935645;29;20142;-78
2022/05/14 10:12:15;;;;;;;22.60;11.57;;;26.50;90.00;;;;;;4936086;29;20094;-78
2022/05/14 10:15:44;;;;;;;23.95;15.07;;;26.70;89.10;;;;;;4935300;29;20136;-78
2022/05/14 10:18:55;;;;;;;7.45;4.75;;;27.10;87.40;;;;;;4905738;29;20059;-80
2022/05/14 10:21:50;;;;;;;8.15;4.93;;;26.70;85.90;;;;;;4935881;29;20066;-79
2022/05/14 10:28:51;;;;;;;10.15;5.25;;;26.80;85.20;;;;;;4935355;29;20183;-79
2022/05/14 10:32:01;;;;;;;8.13;4.90;;;27.20;84.40;;;;;;4921001;29;20051;-81
2022/05/14 10:35:19;;;;;;;9.68;5.85;;;27.40;84.10;;;;;;4935290;29;20121;-80
2022/05/14 10:38:16;;;;;;;10.00;5.78;;;27.80;84.20;;;;;;4933746;29;20402;-79
2022/05/14 10:41:06;;;;;;;10.23;6.40;;;27.60;81.90;;;;;;4934803;29;20539;-80
2022/05/14 10:44:18;;;;;;;7.60;4.95;;;27.40;80.60;;;;;;4933675;29;20110;-80
2022/05/14 10:47:09;;;;;;;8.77;5.93;;;27.10;79.60;;;;;;4926180;29;20214;-75
2022/05/14 10:50:14;;;;;;;23.45;18.15;;;27.10;82.00;;;;;;4914588;29;20172;-79
2022/05/14 10:53:06;;;;;;;69.70;51.42;;;27.30;83.20;;;;;;4915406;29;20440;-82
2022/05/14 10:56:13;;;;;;;10.15;7.85;;;27.20;82.30;;;;;;4915723;29;20191;-85
2022/05/14 10:59:11;;;;;;;15.70;8.30;;;27.00;81.00;;;;;;4916018;29;20420;-79
2022/05/14 11:01:57;;;;;;;11.43;6.18;;;26.80;82.30;;;;;;4915872;29;20176;-79
2022/05/14 11:04:51;;;;;;;13.27;5.43;;;26.50;84.50;;;;;;4912097;29;20051;-79
2022/05/14 11:07:42;;;;;;;15.07;6.25;;;26.50;85.90;;;;;;4908011;29;20063;-78
2022/05/14 11:10:28;;;;;;;12.63;7.43;;;26.70;86.30;;;;;;4907915;29;20072;-79
2022/05/14 11:13:26;;;;;;;12.32;5.40;;;27.10;87.00;;;;;;4904565;29;20087;-75
2022/05/14 11:16:13;;;;;;;10.75;5.45;;;27.50;88.30;;;;;;4904369;29;20118;-77
2022/05/14 11:19:00;;;;;;;8.68;5.65;;;27.60;86.90;;;;;;4904092;29;20154;-76
2022/05/14 11:21:47;;;;;;;8.88;6.30;;;27.70;86.10;;;;;;4903128;29;20074;-76
2022/05/14 11:24:42;;;;;;;6.90;4.93;;;27.40;86.10;;;;;;4906172;29;20115;-76
2022/05/14 11:27:37;;;;;;;10.68;7.05;;;27.30;85.00;;;;;;4914951;29;20055;-76
2022/05/14 11:31:05;;;;;;;9.02;6.15;;;27.50;84.40;;;;;;4917631;29;20150;-75
2022/05/14 11:33:53;;;;;;;7.43;4.70;;;27.80;81.30;;;;;;4890428;29;20188;-76
2022/05/14 11:36:49;;;;;;;13.35;4.60;;;28.00;80.70;;;;;;4912781;29;20059;-75
2022/05/14 12:06:02;;;;;;;7.00;3.50;;;27.10;76.00;;;;;;5150619;27;20996;-79
2022/05/14 12:08:47;;;;;;;6.63;3.63;;;26.60;78.70;;;;;;5150101;27;20035;-86
2022/05/14 12:11:50;;;;;;;9.52;4.03;;;26.50;79.30;;;;;;5149325;27;20112;-78
2022/05/14 12:14:20;;;;;;;7.00;4.30;;;26.50;79.30;;;;;;5085218;28;20497;-77
2022/05/14 12:16:51;;;;;;;6.68;4.32;;;26.50;80.20;;;;;;5122389;27;20576;-77
2022/05/14 12:19:31;;;;;;;23.05;17.75;;;26.50;81.10;;;;;;5124811;28;20046;-79
2022/05/14 12:22:22;;;;;;;41.42;27.25;;;26.60;80.50;;;;;;5128541;28;20438;-79
2022/05/14 12:25:08;;;;;;;22.02;12.75;;;26.50;80.50;;;;;;5129453;27;20506;-79
2022/05/14 12:27:46;;;;;;;21.58;13.57;;;26.50;81.20;;;;;;5129281;27;20130;-76
2022/05/14 12:30:14;;;;;;;7.78;5.10;;;26.30;84.40;;;;;;5129343;27;20451;-77
2022/05/14 12:35:34;;;;;;;8.43;4.35;;;26.20;82.20;;;;;;5143203;27;20038;-73
2022/05/14 12:38:05;;;;;;;7.22;4.50;;;26.20;81.60;;;;;;5143437;27;20724;-74
2022/05/14 12:40:38;;;;;;;8.02;3.92;;;26.10;82.60;;;;;;5145079;27;20039;-76
2022/05/14 12:43:08;;;;;;;10.55;4.82;;;26.00;84.30;;;;;;5147395;27;20452;-73
2022/05/14 12:45:42;;;;;;;22.80;14.50;;;26.10;84.90;;;;;;5147895;27;20046;-74
2022/05/14 12:48:12;;;;;;;12.30;6.50;;;25.90;86.00;;;;;;5148324;27;20042;-77
2022/05/14 12:50:52;;;;;;;9.15;4.53;;;25.80;84.30;;;;;;5144923;27;20491;-76
2022/05/14 12:53:19;;;;;;;7.85;3.90;;;25.80;84.80;;;;;;5145244;27;20086;-78
2022/05/14 12:55:49;;;;;;;9.10;4.15;;;25.70;84.60;;;;;;5132585;27;20040;-75
2022/05/14 12:58:18;;;;;;;10.02;4.10;;;25.30;85.60;;;;;;5127836;27;20496;-77
2022/05/14 13:00:51;;;;;;;33.53;20.80;;;25.00;87.40;;;;;;5127584;27;20035;-74
2022/05/14 13:03:34;;;;;;;18.20;6.13;;;25.20;84.70;;;;;;5127697;27;20047;-75
2022/05/14 13:06:13;;;;;;;24.80;16.20;;;25.20;87.00;;;;;;5117631;27;20411;-72
2022/05/14 13:08:44;;;;;;;10.15;5.32;;;24.80;89.00;;;;;;5114428;28;20046;-75
2022/05/14 13:11:18;;;;;;;5.95;3.47;;;24.90;87.70;;;;;;5114001;28;20429;-75
2022/05/14 13:13:51;;;;;;;8.20;3.42;;;25.20;85.60;;;;;;5114287;28;20496;-73
2022/05/14 13:16:22;;;;;;;6.88;3.40;;;25.00;89.40;;;;;;5113029;28;20503;-78
2022/05/14 13:18:58;;;;;;;9.50;3.45;;;24.40;90.60;;;;;;5114091;28;20049;-73
2022/05/14 13:21:56;;;;;;;9.90;4.07;;;24.40;90.70;;;;;;5114132;28;20537;-79
2022/05/14 13:24:28;;;;;;;6.70;3.72;;;24.70;89.90;;;;;;5110980;28;20059;-78
2022/05/14 13:27:01;;;;;;;11.82;4.43;;;24.90;87.40;;;;;;5112870;28;20059;-83
2022/05/14 13:29:37;;;;;;;8.23;3.67;;;25.30;86.50;;;;;;5086805;28;20051;-79
2022/05/14 13:32:09;;;;;;;5.78;3.08;;;25.40;84.80;;;;;;5093329;28;20361;-81
2022/05/14 13:37:30;;;;;;;7.70;3.58;;;25.80;84.90;;;;;;5092255;28;20069;-81
2022/05/14 13:40:22;;;;;;;7.85;3.67;;;25.70;85.30;;;;;;5093655;28;20101;-84
2022/05/14 13:43:12;;;;;;;6.82;3.83;;;25.60;83.90;;;;;;5092553;28;20044;-86
2022/05/14 13:45:45;;;;;;;8.88;3.80;;;25.60;83.30;;;;;;5080490;28;20056;-80
2022/05/14 13:48:38;;;;;;;6.13;3.22;;;25.50;84.10;;;;;;5089180;28;20047;-79
2022/05/14 13:51:11;;;;;;;5.80;3.42;;;25.50;85.20;;;;;;5064959;28;20048;-83
2022/05/14 13:53:40;;;;;;;6.30;3.60;;;25.20;87.60;;;;;;5091878;28;20086;-80
2022/05/14 13:56:14;;;;;;;5.65;3.20;;;25.10;88.30;;;;;;5090755;28;20384;-80
2022/05/14 13:59:07;;;;;;;7.30;3.10;;;24.80;85.90;;;;;;5091254;28;20400;-81
2022/05/14 14:01:50;;;;;;;7.30;3.20;;;24.40;87.40;;;;;;5075498;28;20052;-84
2022/05/14 14:04:27;;;;;;;9.02;3.08;;;24.10;89.20;;;;;;5092114;28;20052;-86
2022/05/14 14:07:00;;;;;;;8.25;3.42;;;23.90;90.40;;;;;;5091898;28;20051;-81
2022/05/14 14:09:28;;;;;;;;;;;23.80;90.90;;;;;;5094173;28;20052;-80
2022/05/14 14:11:55;;;;;;;5.55;2.90;;;23.90;91.00;;;;;;5091924;28;20300;-80
2022/05/14 14:14:24;;;;;;;5.10;3.33;;;24.00;91.10;;;;;;5093223;28;20080;-82
2022/05/14 14:16:52;;;;;;;9.95;3.50;;;24.00;91.80;;;;;;5091250;28;20068;-78
2022/05/14 14:19:19;;;;;;;7.20;4.05;;;24.20;92.00;;;;;;5092423;28;20048;-85
2022/05/14 14:21:47;;;;;;;8.10;3.40;;;24.30;93.70;;;;;;5092265;28;20085;-86
2022/05/14 14:24:19;;;;;;;6.72;3.80;;;24.30;94.60;;;;;;5092953;28;20484;-79
2022/05/14 14:26:51;;;;;;;6.90;3.75;;;24.50;95.00;;;;;;5091844;28;20032;-80
2022/05/14 14:29:21;;;;;;;7.72;3.58;;;24.30;96.00;;;;;;5093238;28;20160;-82
2022/05/14 14:31:49;;;;;;;8.00;4.50;;;24.10;98.10;;;;;;5093039;28;20044;-79
2022/05/14 14:34:16;;;;;;;11.60;3.75;;;23.80;99.90;;;;;;5093485;28;20105;-79
2022/05/14 14:36:45;;;;;;;10.27;3.95;;;23.60;99.90;;;;;;5091803;28;20040;-78
2022/05/14 14:39:12;;;;;;;6.30;4.18;;;23.40;99.90;;;;;;5091814;28;20040;-80
2022/05/14 14:41:41;;;;;;;7.82;4.30;;;23.20;99.90;;;;;;5091601;28;20040;-78
2022/05/14 14:44:11;;;;;;;7.63;4.20;;;23.20;99.90;;;;;;5092735;28;20122;-81
2022/05/14 14:46:43;;;;;;;22.00;4.90;;;22.90;99.90;;;;;;5075209;28;20047;-81
2022/05/14 14:49:12;;;;;;;28.88;5.03;;;22.80;99.90;;;;;;5093146;28;20380;-83
2022/05/14 14:51:41;;;;;;;21.83;5.00;;;22.70;99.90;;;;;;5092759;28;20068;-83
2022/05/14 14:54:08;;;;;;;23.60;6.22;;;22.80;99.90;;;;;;5092230;28;20075;-79
2022/05/14 14:56:36;;;;;;;10.15;4.63;;;22.70;99.90;;;;;;5092575;28;20113;-84
2022/05/14 14:59:03;;;;;;;8.82;5.00;;;22.50;99.90;;;;;;5092721;28;20089;-80
2022/05/14 15:01:35;;;;;;;7.95;4.38;;;22.40;99.90;;;;;;5091150;28;20039;-85
2022/05/14 15:04:42;;;;;;;6.85;4.60;;;22.40;99.90;;;;;;5092432;28;20078;-80